Time;durP1;ratioP1;P1;durP2;ratioP2;P2;SDS_P1;SDS_P2;PMS_P1;PMS_P2;Temp;Humidity;BMP_temperature;BMP_pressure;BME280_temperature;BME280_humidity;BME280_pressure;Samples;Min_cycle;Max_cycle;Signal;HPM_P1;HPM_P2
2022/12/16 00:00:08;;;;;;;15.65;11.02;;;;;;;-6.31;90.36;100838.16;5035088;28;20022;-68
2022/12/16 00:02:33;;;;;;;24.00;12.25;;;;;;;-6.21;90.27;100849.06;5035398;28;20515;-67
2022/12/16 00:04:59;;;;;;;17.83;12.20;;;;;;;-6.31;90.17;100833.00;5034901;28;20036;-69
2022/12/16 00:07:24;;;;;;;18.63;12.07;;;;;;;-6.29;89.99;100831.19;5016800;28;20058;-68
2022/12/16 00:09:50;;;;;;;20.50;11.73;;;;;;;-6.30;90.31;100835.53;5034514;28;20029;-72
2022/12/16 00:12:15;;;;;;;17.80;11.20;;;;;;;-6.52;90.44;100803.50;5034372;28;20369;-67
2022/12/16 00:14:41;;;;;;;20.13;10.77;;;;;;;-6.38;90.18;100827.16;5016932;28;20026;-70
2022/12/16 00:17:06;;;;;;;18.43;11.43;;;;;;;-6.39;90.08;100834.97;5034517;28;20060;-70
2022/12/16 00:19:34;;;;;;;16.13;11.20;;;;;;;-6.34;90.31;100844.31;5016846;28;20100;-70
2022/12/16 00:21:59;;;;;;;17.95;12.38;;;;;;;-6.41;90.38;100837.63;5034749;28;20120;-68
2022/12/16 00:24:25;;;;;;;20.87;13.47;;;;;;;-6.49;89.98;100843.97;5034710;28;20140;-68
2022/12/16 00:26:51;;;;;;;19.10;11.87;;;;;;;-6.59;91.02;100844.31;5000292;28;20489;-67
2022/12/16 00:29:16;;;;;;;17.30;11.85;;;;;;;-6.74;91.96;100824.09;5034186;28;20044;-70
2022/12/16 00:31:46;;;;;;;18.00;12.03;;;;;;;-6.54;92.17;100844.16;5033709;28;20022;-68
2022/12/16 00:34:16;;;;;;;17.77;12.60;;;;;;;-6.46;92.00;100833.50;5034399;28;20040;-72
2022/12/16 00:36:42;;;;;;;22.92;12.32;;;;;;;-6.44;91.13;100826.53;5034309;28;20025;-70
2022/12/16 00:39:09;;;;;;;19.58;12.13;;;;;;;-6.24;91.45;100855.19;5034233;28;20508;-69
2022/12/16 00:41:35;;;;;;;19.23;12.68;;;;;;;-6.19;90.65;100861.06;5034896;28;20036;-71
2022/12/16 00:44:00;;;;;;;20.90;13.63;;;;;;;-6.21;90.50;100865.44;5034735;28;20116;-70
2022/12/16 00:46:26;;;;;;;22.07;13.70;;;;;;;-6.36;90.60;100845.22;5034631;28;20068;-71
2022/12/16 00:48:51;;;;;;;22.23;13.07;;;;;;;-6.31;90.92;100849.38;5016660;28;20076;-71
2022/12/16 00:51:20;;;;;;;19.30;12.33;;;;;;;-6.22;90.87;100862.91;5034045;28;20053;-69
2022/12/16 00:53:45;;;;;;;20.10;11.93;;;;;;;-6.20;91.41;100850.75;5033798;28;20124;-72
2022/12/16 00:56:17;;;;;;;17.97;11.83;;;;;;;-6.12;90.68;100861.69;5034280;28;20032;-70
2022/12/16 00:58:43;;;;;;;16.02;12.07;;;;;;;-6.18;90.68;100844.59;5034062;28;20033;-69
2022/12/16 01:01:09;;;;;;;19.48;12.45;;;;;;;-6.12;90.21;100862.53;5034862;28;20578;-70
2022/12/16 01:03:35;;;;;;;19.10;12.20;;;;;;;-6.11;90.50;100866.81;5016279;28;20030;-69
2022/12/16 01:06:01;;;;;;;20.45;12.95;;;;;;;-6.14;89.89;100861.72;5034644;28;20022;-70
2022/12/16 01:08:26;;;;;;;17.37;10.83;;;;;;;-6.20;90.01;100846.41;5034774;28;20040;-70
2022/12/16 01:10:54;;;;;;;19.00;11.50;;;;;;;-6.19;89.91;100858.47;5001294;28;20484;-68
2022/12/16 01:13:20;;;;;;;16.05;11.23;;;;;;;-6.13;90.07;100863.41;5033753;28;20079;-70
2022/12/16 01:15:46;;;;;;;20.88;11.95;;;;;;;-6.19;89.70;100868.84;5034104;28;20055;-68
2022/12/16 01:18:11;;;;;;;18.70;12.20;;;;;;;-6.19;89.92;100866.25;5033933;28;20029;-71
2022/12/16 01:20:37;;;;;;;17.57;11.27;;;;;;;-6.25;90.34;100843.97;5033971;28;20481;-71
2022/12/16 01:23:03;;;;;;;19.17;13.13;;;;;;;-6.09;90.31;100875.38;5034157;28;20033;-69
2022/12/16 01:25:29;;;;;;;20.57;13.17;;;;;;;-6.04;90.29;100876.09;5033466;28;20520;-70
2022/12/16 01:27:55;;;;;;;19.17;12.10;;;;;;;-6.06;90.45;100880.47;5034002;28;20026;-70
2022/12/16 01:30:21;;;;;;;18.60;12.13;;;;;;;-6.11;90.84;100882.34;5033907;28;20030;-71
2022/12/16 01:32:46;;;;;;;19.80;11.33;;;;;;;-6.12;91.05;100885.84;5036722;28;20381;-68
2022/12/16 01:35:12;;;;;;;21.57;12.57;;;;;;;-6.14;90.59;100884.22;5034159;28;20025;-71
2022/12/16 01:37:38;;;;;;;20.67;12.97;;;;;;;-6.21;90.21;100893.97;5037374;28;20489;-69
2022/12/16 01:40:04;;;;;;;20.63;12.47;;;;;;;-6.28;91.55;100887.31;5034050;28;20647;-71
2022/12/16 01:42:32;;;;;;;20.75;12.82;;;;;;;-6.22;91.74;100881.91;5033224;28;20068;-69
2022/12/16 01:45:23;;;;;;;22.20;13.27;;;;;;;-6.15;91.48;100879.94;5033501;28;20037;-69
2022/12/16 01:47:50;;;;;;;22.88;13.18;;;;;;;-6.14;92.18;100872.09;5034192;28;20025;-72
2022/12/16 01:50:18;;;;;;;20.15;13.27;;;;;;;-6.12;92.75;100859.09;5034259;28;20029;-71
2022/12/16 01:52:50;;;;;;;21.40;13.93;;;;;;;-6.15;91.79;100870.41;5016042;28;20427;-69
2022/12/16 01:55:21;;;;;;;25.77;15.13;;;;;;;-6.09;92.01;100880.56;5034187;28;20373;-72
2022/12/16 01:57:52;;;;;;;19.70;13.20;;;;;;;-6.05;91.80;100876.97;5033254;28;20025;-69
2022/12/16 02:00:18;;;;;;;19.88;13.57;;;;;;;-6.35;91.37;100847.81;5032632;28;20545;-70
2022/12/16 02:02:46;;;;;;;22.98;13.43;;;;;;;-6.29;92.47;100873.50;5033029;28;20035;-69
2022/12/16 02:05:20;;;;;;;22.85;13.85;;;;;;;-6.29;92.01;100875.25;5032781;28;20060;-70
2022/12/16 02:08:06;;;;;;;22.35;14.35;;;;;;;-6.26;92.74;100886.34;5032907;28;20048;-70
2022/12/16 02:10:40;;;;;;;23.58;15.63;;;;;;;-6.29;92.22;100883.03;5032744;28;20033;-70
2022/12/16 02:13:25;;;;;;;25.23;14.30;;;;;;;-6.26;91.82;100886.34;5032416;28;20469;-71
2022/12/16 02:16:15;;;;;;;26.13;15.35;;;;;;;-6.34;92.79;100884.94;5018266;28;20040;-71
2022/12/16 02:19:19;;;;;;;24.17;14.85;;;;;;;-6.28;92.66;100892.50;5020341;28;20428;-69
2022/12/16 02:22:06;;;;;;;22.63;13.07;;;;;;;-6.30;92.33;100895.13;5038423;28;20543;-71
2022/12/16 02:24:50;;;;;;;25.90;14.60;;;;;;;-6.24;93.53;100901.84;5038140;28;20029;-72
2022/12/16 02:27:24;;;;;;;23.58;16.25;;;;;;;-6.24;92.64;100881.13;5039204;28;20472;-69
2022/12/16 02:29:58;;;;;;;20.95;13.48;;;;;;;-6.26;93.21;100888.09;5038593;28;20113;-68
2022/12/16 02:32:27;;;;;;;22.23;13.73;;;;;;;-6.16;92.37;100894.63;5039180;28;20025;-69
2022/12/16 02:35:09;;;;;;;22.35;14.60;;;;;;;-6.17;92.11;100889.50;5038936;28;20030;-69
2022/12/16 02:38:07;;;;;;;24.65;15.57;;;;;;;-6.29;92.72;100875.25;5040571;28;20079;-69
2022/12/16 02:40:37;;;;;;;;;;;;;;;-6.05;92.74;100908.09;5039144;28;20037;-72
2022/12/16 02:43:06;;;;;;;;;;;;;;;-6.10;92.31;100911.72;5033734;28;19975;-69
2022/12/16 02:45:33;;;;;;;26.73;16.08;;;;;;;-6.20;91.98;100902.59;5032652;28;19916;-70
2022/12/16 02:47:59;;;;;;;28.45;16.05;;;;;;;-6.32;92.04;100901.28;5032294;28;20033;-74
2022/12/16 02:50:33;;;;;;;21.00;14.73;;;;;;;-6.26;93.06;100916.59;5033173;28;20057;-72
2022/12/16 02:53:01;;;;;;;24.13;13.77;;;;;;;-6.33;93.08;100891.81;5014797;28;20039;-70
2022/12/16 02:55:43;;;;;;;19.98;13.18;;;;;;;-6.00;93.26;100924.34;5033842;28;20420;-71
2022/12/16 02:58:52;;;;;;;25.15;13.23;;;;;;;-6.02;92.17;100922.69;5036776;28;20465;-70
2022/12/16 03:01:40;;;;;;;24.65;13.07;;;;;;;-6.04;92.27;100920.16;5013065;28;20117;-70
2022/12/16 03:04:11;;;;;;;25.40;15.63;;;;;;;-6.10;92.52;100928.13;5037056;28;20032;-69
2022/12/16 03:06:39;;;;;;;25.23;15.63;;;;;;;-6.10;92.93;100933.31;5036726;28;20045;-70
2022/12/16 03:09:09;;;;;;;24.17;15.20;;;;;;;-6.21;92.31;100925.06;5036238;28;20033;-74
2022/12/16 03:11:37;;;;;;;24.95;14.35;;;;;;;-6.23;93.02;100944.16;5036593;28;20460;-72
2022/12/16 03:14:06;;;;;;;27.20;15.32;;;;;;;-6.12;93.48;100944.63;5035882;28;20037;-72
2022/12/16 03:16:33;;;;;;;25.25;14.93;;;;;;;-6.13;92.91;100948.97;5035937;28;20112;-68
2022/12/16 03:19:07;;;;;;;21.50;14.20;;;;;;;-6.16;92.82;100954.28;5035652;28;20025;-70
2022/12/16 03:21:42;;;;;;;26.98;15.13;;;;;;;-6.26;92.51;100945.13;5035719;28;20033;-68
2022/12/16 03:24:12;;;;;;;24.65;16.35;;;;;;;-6.23;93.70;100945.00;5035805;28;20052;-70
2022/12/16 03:27:10;;;;;;;26.05;16.45;;;;;;;-6.17;93.43;100955.16;5035750;28;20030;-67
2022/12/16 03:30:01;;;;;;;27.77;16.48;;;;;;;-6.14;94.22;100962.84;5018487;28;20021;-70
2022/12/16 03:32:38;;;;;;;21.23;14.18;;;;;;;-6.08;93.44;100962.63;5035814;28;20032;-67
2022/12/16 03:35:22;;;;;;;23.75;14.60;;;;;;;-6.00;93.75;100975.34;5018504;28;20135;-68
2022/12/16 03:37:52;;;;;;;25.83;15.00;;;;;;;-5.98;93.64;100974.41;5018175;28;20022;-70
2022/12/16 03:40:19;;;;;;;25.23;15.55;;;;;;;-6.01;93.20;100971.06;5035530;28;20064;-68
2022/12/16 03:42:45;;;;;;;22.58;14.70;;;;;;;-6.03;93.36;100972.88;5018445;28;20469;-72
2022/12/16 03:45:21;;;;;;;22.10;14.18;;;;;;;-6.02;93.25;100980.59;5035826;28;20362;-69
2022/12/16 03:47:49;;;;;;;26.85;14.82;;;;;;;-6.09;93.36;100976.47;5001423;28;20022;-69
2022/12/16 03:50:15;;;;;;;23.10;15.13;;;;;;;-6.28;93.53;100926.19;5035320;28;20037;-70
2022/12/16 03:52:40;;;;;;;26.40;16.27;;;;;;;-5.97;93.73;100981.28;5017372;28;20385;-70
2022/12/16 03:55:06;;;;;;;21.73;14.70;;;;;;;-6.07;93.78;100959.16;5035663;28;20025;-70
2022/12/16 03:57:32;;;;;;;25.03;14.87;;;;;;;-5.85;94.20;100981.69;5035317;28;20028;-71
2022/12/16 03:59:59;;;;;;;24.58;14.27;;;;;;;-5.74;93.87;100992.56;5001351;28;20032;-69
2022/12/16 04:02:25;;;;;;;24.77;15.15;;;;;;;-5.65;93.44;100997.44;5034936;28;20059;-69
2022/12/16 04:04:51;;;;;;;26.13;15.10;;;;;;;-5.59;93.04;100999.78;5035632;28;20528;-69
2022/12/16 04:07:19;;;;;;;25.83;15.67;;;;;;;-5.64;93.48;100993.94;5033769;28;20025;-68
2022/12/16 04:09:45;;;;;;;29.70;16.42;;;;;;;-5.69;92.29;101004.47;5034861;28;20026;-70
2022/12/16 04:26:11;;;;;;;25.67;16.17;;;;;;;-5.82;92.01;101023.09;5034412;28;20036;-71
2022/12/16 04:28:36;;;;;;;25.58;14.38;;;;;;;-5.77;92.16;101039.38;5016710;28;20030;-70
2022/12/16 04:31:02;;;;;;;26.33;16.50;;;;;;;-5.84;92.51;101035.28;5034346;28;20036;-70
